Aeroporto :
LOGIN :

Iscrizione | Disclaimer

   EN    FR    IT 

 










Sommario :    VFR   VFR Marginale   IFR   IFR Intensivo   IFR Molto Intensivo
Visibilità : 
Base nubi : 
>= 8 km
>= 3000ft
5 / 8 km
1000 / 3000 ft
1500m / 5 km
500 / 1000 ft
800 / 1500m
200 / 500 ft
< 800m
< 200 ft
Simboli :   Temporali  Nebbia  Neve Forte  Precipitazioni Forti  Vento > 20 kt
SIGMETs :   Varie  Temporali  Ghiacco  Turbolenza  Onda orograficha  Ceneri Vulcaniche






- Altitudine del aeroporto : 70 ft
- Codice IATA : WBG


ETNS - Schleswig

ULTIMO METAR :
  • 021620Z 25022KT 8000 SCT010 BKN015 07/05 Q1002 WHT BLU TEMPO GRN

METARs OBSOLETI :
  • 021520Z 25028G39KT 9999 FEW017 BKN020 BKN038 08/04 Q1003 WHT BLU TEMPO WHT
  • 021420Z 25031KT 9999 BKN022 BKN040 09/03 Q1004 WHT BLU TEMPO WHT

TAF TAF ETNS
Valido dal 02 a 14 ore il 02 a 23 ore UTC


021335Z 0214/0223 26020G30KT 9999 NSW SCT020 BKN050
TEMPO 0214/0218 28030G43KT 5000 -SHRA SCT012 BKN020
TEMPO 0218/0223 28020G33KT 4000 SHRA BKN012TCU BY ETGL



MetMap, La meteo Aeronautica in un colpo d'occhio ! - Copyright ORBIFLY Dicembre 2007 - Disclaimer

ORBIFLY MET'MAP TEAM :

Programmazione e sviluppo : Alexandra Zaïnal
Concezione : Baudouin d'Aumeries
Aiuto per la programmazione : Marc-Olivier Méhu
Supporto tecnico e logistico : Manuel Goepfert
Aiuto per la traduzione : Arnaldo La Scala

Contatto : metmap@orbifly.com




FONTI E CREDITI :

   NOAA